US-0124 weather

Public forecast

Using degrees Fahrenheit for public forecast. Weather courtesy of forecast.io.

Closest aviation weather report (METAR) to Bachman Farm Ultralightport

Closest report is Louisa County Airport/Freeman Field, 16.6 nm (30.8 km) NNW. Retrieved 2020/08/13 16:35 UTC (3 minutes ago):

KLKU 131635Z AUTO 04005KT 10SM SCT005 BKN033 OVC120 23/22 A3012 RMK AO2 T02270219

Closest aviation forecast (TAF) to Bachman Farm Ultralightport

Closest forecast is Richmond International Airport, 29.3 nm (54.3 km) ESE. Retrieved 2020/08/13 12:22 UTC (4 hours ago):

TAF KRIC 131120Z 1312/1412 VRB03KT P6SM BKN010 BKN100 FM131300 07004KT P6SM SCT040 BKN100 FM131600 08004KT P6SM VCTS BKN035CB TEMPO 1318/1321 2SM TSRA BR OVC025CB FM140000 VRB03KT 5SM -SHRA BKN025 FM140600 VRB03KT P6SM BKN010